Latest Weather Observations for Bridgetown

IDW60801

Issued at 12:35 pm WST Monday 21 April 2014 (issued every 30 minutes, with the page automatically refreshed every 10 minutes)

About weather observations | Map of weather stations | Latest weather observations for WA | Other Formats
Station Details ID: 009617 Name: BRIDGETOWN Lat: -33.95 Lon: 116.13 Height: 178.66 m
Data from the previous 72 hours. | See also: Recent months at Bridgetown
Date/Time
WST
Temp
°C
App
Temp
°C
Dew
Point
Rel
Hum
%
Delta-T
°C
Wind Press
QNH
hPa
Press
MSL
hPa
Rain
since 9 am
mm
Dir
 
Spd
km/h
Gust
km/h
Spd
kts
Gust
kts
21/12:30pm 18.0 15.8 6.2 46 5.8 ESE 7 13 4 7 1019.5 - 0.0
21/12:00pm 17.0 14.4 7.6 54 4.8 SSE 11 19 6 10 1020.0 1019.8 0.0
21/11:30am 16.8 15.2 8.0 56 4.5 SSW 6 11 3 6 1020.2 - 0.0
21/11:00am 16.7 15.3 9.6 63 3.7 SW 7 15 4 8 1020.3 1020.1 0.0
21/10:30am 16.1 14.7 9.5 65 3.5 ESE 7 15 4 8 1020.5 - 0.0
21/10:00am 13.2 14.0 12.4 95 0.4 CALM 0 0 0 0 1020.5 1020.3 0.0
21/09:30am 10.6 10.8 10.6 100 0.0 CALM 0 0 0 0 1020.8 - 0.0
21/09:00am 8.6 8.3 8.6 100 0.0 CALM 0 0 0 0 1020.8 1020.5 0.0
21/08:30am 7.8 7.3 7.8 100 0.0 CALM 0 0 0 0 1020.5 - 0.0
21/08:00am 7.1 6.4 7.1 100 0.0 CALM 0 0 0 0 1020.0 1019.8 0.0
21/07:30am 6.5 5.7 6.5 100 0.0 CALM 0 0 0 0 1019.5 - 0.0
21/07:00am 6.5 5.7 6.5 100 0.0 CALM 0 0 0 0 1019.4 1019.1 0.0
21/06:30am 6.3 5.5 6.3 100 0.0 NNE 0 0 0 0 1019.3 - 0.0
21/06:00am 6.1 4.8 6.1 100 0.0 N 2 4 1 2 1018.9 1018.6 0.0
21/05:30am 6.5 5.7 6.5 100 0.0 CALM 0 0 0 0 1018.6 - 0.0
21/05:00am 6.5 5.7 6.5 100 0.0 CALM 0 0 0 0 1018.6 1018.3 0.0
21/04:30am 6.3 5.5 6.3 100 0.0 CALM 0 0 0 0 1018.1 - 0.0
21/04:00am 5.8 4.8 5.8 100 0.0 CALM 0 2 0 1 1018.1 1017.8 0.0
21/03:30am 6.2 5.3 6.2 100 0.0 CALM 0 0 0 0 1018.1 - 0.0
21/03:00am 5.7 4.7 5.7 100 0.0 CALM 0 0 0 0 1017.8 1017.5 0.0
21/02:30am 5.0 3.9 4.9 99 0.0 CALM 0 0 0 0 1017.5 - 0.0
21/02:00am 5.3 4.2 5.2 99 0.0 CALM 0 0 0 0 1017.4 1017.1 0.0
21/01:30am 6.2 5.3 6.2 100 0.0 CALM 0 0 0 0 1017.2 - 0.0
21/01:00am 6.0 5.1 5.9 99 0.0 CALM 0 0 0 0 1017.2 1016.9 0.0
21/12:30am 6.3 5.4 6.2 99 0.0 CALM 0 2 0 1 1017.3 - 0.0
21/12:00am 6.2 5.3 6.1 99 0.0 NW 0 0 0 0 1016.9 1016.6 0.0
 
Date/Time
WST
Temp
°C
App
Temp
°C
Dew
Point
Rel
Hum
%
Delta-T
°C
Wind Press
QNH
hPa
Press
MSL
hPa
Rain
since 9 am
mm
Dir
 
Spd
km/h
Gust
km/h
Spd
kts
Gust
kts
20/11:30pm 6.5 5.7 6.4 99 0.0 CALM 0 0 0 0 1016.8 - 0.0
20/11:00pm 7.3 6.7 7.2 99 0.0 CALM 0 2 0 1 1016.9 1016.6 0.0
20/10:30pm 7.9 7.4 7.8 99 0.0 CALM 0 0 0 0 1017.0 - 0.0
20/10:00pm 8.5 8.1 8.4 99 0.0 CALM 0 0 0 0 1016.8 1016.5 0.0
20/09:30pm 9.9 9.5 9.8 99 0.1 NNW 2 6 1 3 1016.8 - 0.0
20/09:00pm 10.5 10.6 10.2 98 0.2 CALM 0 0 0 0 1016.6 1016.3 0.0
20/08:30pm 11.5 11.8 11.0 97 0.3 CALM 0 0 0 0 1016.4 - 0.0
20/08:00pm 12.8 12.9 10.2 84 1.4 CALM 0 0 0 0 1016.4 1016.1 0.0
20/07:30pm 14.5 14.4 10.7 78 2.0 SSW 2 4 1 2 1016.3 - 0.0
20/07:00pm 15.3 14.8 10.7 74 2.5 SSW 4 7 2 4 1016.3 1016.0 0.0
20/06:30pm 16.0 15.6 11.0 72 2.7 S 4 6 2 3 1016.0 - 0.0
20/06:00pm 16.3 15.9 11.2 72 2.8 SSW 4 7 2 4 1015.8 1015.5 0.0
20/05:30pm 16.4 15.4 11.1 71 2.9 S 7 15 4 8 1015.4 - 0.0
20/05:00pm 16.8 15.7 10.6 67 3.3 SSW 7 13 4 7 1015.3 1015.0 0.0
20/04:30pm 17.1 15.7 10.9 67 3.4 S 9 15 5 8 1015.2 - 0.0
20/04:00pm 17.0 15.0 11.5 70 3.0 SSW 13 19 7 10 1015.2 1014.8 0.0
20/03:30pm 17.3 16.5 11.8 70 3.0 SW 7 19 4 10 1015.0 - 0.0
20/03:00pm 17.0 14.6 11.5 70 3.0 SSW 15 22 8 12 1015.0 1014.6 0.0
20/02:30pm 17.9 16.5 11.0 64 3.8 SSW 9 15 5 8 1014.5 - 0.0
20/02:00pm 17.4 15.3 11.2 67 3.4 S 13 22 7 12 1014.8 1014.4 0.0
20/01:30pm 17.7 15.6 11.0 65 3.6 S 13 22 7 12 1014.6 - 0.0
20/01:00pm 18.9 18.2 10.2 57 4.7 SSE 4 7 2 4 1014.6 1014.3 0.0
20/12:30pm 18.6 18.4 10.4 59 4.4 W 2 7 1 4 1014.9 - 0.0
20/12:00pm 17.9 17.4 10.8 63 3.9 SW 4 9 2 5 1015.3 1015.0 0.0
20/11:30am 17.8 17.3 10.7 63 3.8 ESE 4 9 2 5 1015.9 - 0.0
20/11:00am 17.6 17.5 10.9 65 3.6 SSE 2 6 1 3 1016.3 1016.0 0.0
20/10:30am 17.1 17.3 11.8 71 2.9 S 2 4 1 2 1016.7 - 0.0
20/10:00am 15.4 15.7 12.2 81 1.8 ESE 2 6 1 3 1016.6 1016.3 0.0
20/09:30am 14.2 14.6 12.4 89 1.0 S 2 4 1 2 1016.9 - 0.0
20/09:00am 12.2 12.8 11.9 98 0.2 CALM 0 0 0 0 1016.9 1016.6 0.0
20/08:30am 10.8 11.0 10.6 99 0.1 CALM 0 0 0 0 1016.8 - 0.0
20/08:00am 9.8 9.8 9.8 100 0.0 CALM 0 0 0 0 1016.7 1016.4 0.0
20/07:30am 8.7 8.4 8.6 99 0.0 CALM 0 0 0 0 1016.7 - 0.0
20/07:00am 8.9 8.7 8.9 100 0.0 CALM 0 0 0 0 1016.5 1016.2 0.0
20/06:30am 8.5 8.1 8.4 99 0.0 CALM 0 0 0 0 1016.5 - 0.0
20/06:00am 8.7 8.4 8.6 99 0.0 CALM 0 0 0 0 1016.5 1016.2 0.0
20/05:30am 9.1 8.9 9.0 99 0.0 CALM 0 0 0 0 1016.5 - 0.0
20/05:00am 9.3 9.1 9.2 99 0.0 CALM 0 0 0 0 1016.4 1016.1 0.0
20/04:30am 8.9 8.6 8.8 99 0.0 CALM 0 0 0 0 1016.4 - 0.0
20/04:00am 9.1 8.9 9.0 99 0.0 CALM 0 0 0 0 1016.4 1016.1 0.0
20/03:30am 9.6 9.5 9.5 99 0.1 CALM 0 0 0 0 1016.4 - 0.0
20/03:00am 9.4 9.3 9.3 99 0.0 CALM 0 0 0 0 1016.4 1016.1 0.0
20/02:30am 9.7 9.6 9.6 99 0.1 CALM 0 0 0 0 1016.5 - 0.0
20/02:00am 9.8 9.8 9.7 99 0.1 CALM 0 0 0 0 1016.8 1016.5 0.0
20/01:30am 9.5 9.4 9.4 99 0.1 CALM 0 2 0 1 1016.8 - 0.0
20/01:00am 9.7 9.6 9.6 99 0.1 CALM 0 0 0 0 1016.9 1016.6 0.0
20/12:30am 10.1 10.2 10.0 99 0.1 CALM 0 0 0 0 1016.8 - 0.0
20/12:00am 10.6 10.7 10.3 98 0.2 CALM 0 0 0 0 1016.9 1016.6 0.0
 
Date/Time
WST
Temp
°C
App
Temp
°C
Dew
Point
Rel
Hum
%
Delta-T
°C
Wind Press
QNH
hPa
Press
MSL
hPa
Rain
since 9 am
mm
Dir
 
Spd
km/h
Gust
km/h
Spd
kts
Gust
kts
19/11:30pm 11.5 11.9 11.2 98 0.2 CALM 0 0 0 0 1017.2 - 0.0
19/11:00pm 12.4 12.9 11.5 94 0.5 CALM 0 0 0 0 1017.5 1017.2 0.0
19/10:30pm 13.4 13.7 12.1 92 0.7 SSE 2 4 1 2 1017.6 - 0.0
19/10:00pm 13.7 13.7 12.3 91 0.8 S 4 6 2 3 1017.7 1017.4 0.0
19/09:30pm 13.9 14.1 11.8 87 1.1 S 2 4 1 2 1017.6 - 0.0
19/09:00pm 14.7 14.1 12.2 85 1.4 S 7 9 4 5 1017.8 1017.5 0.0
19/08:30pm 15.0 14.4 12.3 84 1.5 S 7 11 4 6 1017.6 - 0.0
19/08:00pm 15.3 14.7 12.4 83 1.6 S 7 13 4 7 1017.7 1017.4 0.0
19/07:30pm 15.5 15.1 12.3 81 1.8 S 6 7 3 4 1017.4 - 0.0
19/07:00pm 16.0 15.2 11.8 76 2.3 S 7 13 4 7 1017.4 1017.1 0.0
19/06:30pm 16.8 15.6 11.5 71 2.9 S 9 15 5 8 1017.1 - 0.0
19/06:00pm 17.7 16.0 11.3 66 3.5 S 11 20 6 11 1016.7 1016.4 0.0
19/05:30pm 18.4 16.7 11.2 63 3.9 S 11 17 6 9 1016.5 - 0.0
19/05:00pm 19.2 17.1 11.3 60 4.4 S 13 20 7 11 1016.2 1015.9 0.0
19/04:30pm 20.0 17.9 11.2 57 4.9 SSE 13 20 7 11 1016.2 - 0.0
19/04:00pm 20.8 18.3 11.2 54 5.3 S 15 24 8 13 1016.2 1015.9 0.0
19/03:30pm 21.4 19.0 9.9 48 6.3 S 13 22 7 12 1016.2 - 0.0
19/03:00pm 21.5 18.3 8.4 43 6.9 S 15 24 8 13 1016.2 1015.9 0.0
19/02:30pm 21.3 18.9 8.6 44 6.7 S 11 24 6 13 1016.2 - 0.0
19/02:00pm 22.2 19.3 8.3 41 7.4 S 13 20 7 11 1016.3 1016.0 0.0
19/01:30pm 21.8 19.1 9.0 44 6.9 SSW 13 20 7 11 1016.5 - 0.0
19/01:00pm 21.7 19.7 8.6 43 7.0 SE 9 19 5 10 1016.8 1016.5 0.0
19/12:30pm 21.1 18.7 8.7 45 6.6 S 11 19 6 10 1017.4 - 0.0
19/12:00pm 20.1 18.5 10.2 53 5.4 SSE 9 15 5 8 1018.2 1017.9 0.0
19/11:30am 19.6 18.1 10.6 56 4.9 S 9 17 5 9 1018.3 - 0.0
19/11:00am 19.6 18.8 10.9 57 4.8 S 6 11 3 6 1018.6 1018.3 0.0
19/10:30am 18.6 18.3 12.6 68 3.4 S 6 13 3 7 1018.9 - 0.0
19/10:00am 18.1 18.4 14.4 79 2.1 S 6 11 3 6 1019.4 1019.1 0.0
19/09:30am 15.6 17.0 15.3 98 0.2 SSW 2 4 1 2 1019.7 - 0.0
19/09:00am 13.9 14.3 13.7 99 0.1 SSW 4 6 2 3 1020.1 1019.9 0.0
19/08:30am 13.1 13.3 13.1 100 0.0 SSE 4 6 2 3 1020.1 - 0.0
19/08:00am 12.3 13.0 12.3 100 0.0 CALM 0 0 0 0 1020.1 1019.9 0.0
19/07:30am 11.8 12.4 11.8 100 0.0 CALM 0 0 0 0 1019.8 - 0.0
19/07:00am 11.4 11.8 11.4 100 0.0 CALM 0 0 0 0 1019.6 1019.3 0.0
19/06:30am 11.2 11.6 11.2 100 0.0 CALM 0 0 0 0 1019.6 - 0.0
19/06:00am 11.0 11.3 11.0 100 0.0 CALM 0 0 0 0 1019.4 1019.1 0.0
19/05:30am 10.8 11.1 10.8 100 0.0 CALM 0 0 0 0 1019.3 - 0.0
19/05:00am 10.5 10.7 10.5 100 0.0 CALM 0 0 0 0 1019.1 1018.8 0.0
19/04:30am 10.5 10.7 10.5 100 0.0 CALM 0 0 0 0 1019.0 - 0.0
19/04:00am 10.2 10.3 10.2 100 0.0 CALM 0 0 0 0 1018.8 1018.5 0.0
19/03:30am 9.7 9.7 9.7 100 0.0 CALM 0 0 0 0 1018.8 - 0.0
19/03:00am 9.2 9.0 9.2 100 0.0 CALM 0 0 0 0 1018.9 1018.6 0.0
19/02:30am 8.7 8.4 8.6 99 0.0 CALM 0 0 0 0 1019.1 - 0.0
19/02:00am 8.1 7.6 8.0 99 0.0 CALM 0 0 0 0 1019.5 1019.2 0.0
19/01:30am 8.4 8.0 8.3 99 0.0 CALM 0 0 0 0 1019.7 - 0.0
19/01:00am 9.2 9.0 9.1 99 0.0 CALM 0 0 0 0 1019.9 1019.6 0.0
19/12:30am 9.5 9.4 9.4 99 0.1 CALM 0 0 0 0 1019.9 - 0.0
19/12:00am 10.0 10.0 9.9 99 0.1 CALM 0 0 0 0 1020.0 1019.8 0.0
 
Date/Time
WST
Temp
°C
App
Temp
°C
Dew
Point
Rel
Hum
%
Delta-T
°C
Wind Press
QNH
hPa
Press
MSL
hPa
Rain
since 9 am
mm
Dir
 
Spd
km/h
Gust
km/h
Spd
kts
Gust
kts
18/11:30pm 10.6 10.8 10.4 99 0.1 CALM 0 0 0 0 1020.1 - 0.0
18/11:00pm 11.1 11.4 10.8 98 0.2 CALM 0 0 0 0 1020.4 1020.2 0.0
18/10:30pm 12.1 12.7 11.8 98 0.2 CALM 0 0 0 0 1020.8 - 0.0
18/10:00pm 13.2 13.6 12.6 96 0.3 SSW 2 4 1 2 1021.0 1020.7 0.0
18/09:30pm 14.8 15.2 13.7 93 0.6 S 4 7 2 4 1021.1 - 0.0
18/09:00pm 14.7 15.2 12.7 88 1.1 S 2 6 1 3 1021.1 1020.8 0.0
18/08:30pm 15.8 15.4 12.5 81 1.8 S 6 9 3 5 1021.0 - 0.0
18/08:00pm 16.5 16.0 12.5 77 2.2 SSW 7 13 4 7 1020.8 1020.5 0.0
18/07:30pm 17.2 16.7 12.5 74 2.6 S 7 11 4 6 1020.5 - 0.0
18/07:00pm 18.1 17.3 13.0 72 2.9 SSW 9 13 5 7 1020.2 1020.0 0.0
18/06:30pm 18.9 18.4 12.6 67 3.6 SW 7 17 4 9 1019.8 - 0.0
18/06:00pm 20.2 19.7 10.6 54 5.2 SSW 4 7 2 4 1019.2 1018.9 0.0
18/05:30pm 21.3 21.5 10.5 50 5.9 CALM 0 0 0 0 1019.1 - 0.0
18/05:00pm 22.4 21.4 10.2 46 6.7 SW 6 11 3 6 1019.1 1018.8 0.0
18/04:30pm 22.7 22.3 9.8 44 7.1 SE 2 6 1 3 1018.9 - 0.0
18/04:00pm 22.8 22.0 9.6 43 7.2 SW 4 11 2 6 1019.1 1018.8 0.0
18/03:30pm 23.1 22.6 9.5 42 7.4 ENE 2 7 1 4 1019.2 - 0.0
18/03:00pm 22.9 22.1 9.7 43 7.2 W 4 9 2 5 1019.4 1019.1 0.0
18/02:30pm 22.8 21.6 10.3 45 6.9 NNW 7 11 4 6 1019.4 - 0.0
18/02:00pm 23.3 22.4 10.7 45 7.0 ESE 6 9 3 5 1019.6 1019.3 0.0
18/01:30pm 22.6 22.8 10.4 46 6.7 CALM 0 2 0 1 1019.9 - 0.0
18/01:00pm 22.4 21.7 10.2 46 6.7 N 4 7 2 4 1020.4 1020.2 0.0

Other Formats:

Comma delimited format used in spreadsheet applications
http://www.bom.gov.au/fwo/IDW60801/IDW60801.95632.axf

JavaScript Object Notation format (JSON) in row-major order
http://www.bom.gov.au/fwo/IDW60801/IDW60801.95632.json